sensor_id;sensor_type;location;lat;lon;timestamp;P1;durP1;ratioP1;P2;durP2;ratioP2
76848;SDS011;65814;51.134;16.980;2023-03-01T00:01:16;72.30;;;35.50;;
76848;SDS011;65814;51.134;16.980;2023-03-01T00:03:47;76.60;;;34.90;;
76848;SDS011;65814;51.134;16.980;2023-03-01T00:06:14;71.60;;;32.00;;
76848;SDS011;65814;51.134;16.980;2023-03-01T00:08:41;64.90;;;29.90;;
76848;SDS011;65814;51.134;16.980;2023-03-01T00:11:08;70.70;;;31.30;;
76848;SDS011;65814;51.134;16.980;2023-03-01T00:13:38;65.50;;;32.30;;
76848;SDS011;65814;51.134;16.980;2023-03-01T00:18:37;59.20;;;26.30;;
76848;SDS011;65814;51.134;16.980;2023-03-01T00:21:04;66.00;;;30.10;;
76848;SDS011;65814;51.134;16.980;2023-03-01T00:23:31;64.70;;;31.30;;
76848;SDS011;65814;51.134;16.980;2023-03-01T00:26:00;76.10;;;35.00;;
76848;SDS011;65814;51.134;16.980;2023-03-01T00:28:27;75.40;;;35.70;;
76848;SDS011;65814;51.134;16.980;2023-03-01T00:30:54;72.20;;;31.70;;
76848;SDS011;65814;51.134;16.980;2023-03-01T00:33:20;81.60;;;36.70;;
76848;SDS011;65814;51.134;16.980;2023-03-01T00:35:47;67.40;;;29.50;;
76848;SDS011;65814;51.134;16.980;2023-03-01T00:38:14;69.70;;;32.70;;
76848;SDS011;65814;51.134;16.980;2023-03-01T00:40:40;92.00;;;38.80;;
76848;SDS011;65814;51.134;16.980;2023-03-01T00:43:07;105.90;;;43.40;;
76848;SDS011;65814;51.134;16.980;2023-03-01T00:45:34;119.10;;;48.70;;
76848;SDS011;65814;51.134;16.980;2023-03-01T00:48:00;122.70;;;50.00;;
76848;SDS011;65814;51.134;16.980;2023-03-01T00:50:27;131.30;;;52.90;;
76848;SDS011;65814;51.134;16.980;2023-03-01T00:52:54;150.60;;;56.70;;
76848;SDS011;65814;51.134;16.980;2023-03-01T00:55:22;155.30;;;59.60;;
76848;SDS011;65814;51.134;16.980;2023-03-01T00:57:49;135.10;;;55.60;;
76848;SDS011;65814;51.134;16.980;2023-03-01T01:00:15;130.70;;;55.00;;
76848;SDS011;65814;51.134;16.980;2023-03-01T01:05:09;129.80;;;53.10;;
76848;SDS011;65814;51.134;16.980;2023-03-01T01:07:35;119.10;;;52.40;;
76848;SDS011;65814;51.134;16.980;2023-03-01T01:10:02;133.90;;;54.80;;
76848;SDS011;65814;51.134;16.980;2023-03-01T01:12:29;113.70;;;51.00;;
76848;SDS011;65814;51.134;16.980;2023-03-01T01:14:56;111.00;;;50.50;;
76848;SDS011;65814;51.134;16.980;2023-03-01T01:17:27;110.10;;;45.80;;
76848;SDS011;65814;51.134;16.980;2023-03-01T01:19:53;112.40;;;47.30;;
76848;SDS011;65814;51.134;16.980;2023-03-01T01:22:20;113.90;;;50.00;;
76848;SDS011;65814;51.134;16.980;2023-03-01T01:24:47;114.20;;;51.70;;
76848;SDS011;65814;51.134;16.980;2023-03-01T01:27:13;120.10;;;51.50;;
76848;SDS011;65814;51.134;16.980;2023-03-01T01:29:39;113.90;;;50.70;;
76848;SDS011;65814;51.134;16.980;2023-03-01T01:32:08;101.10;;;46.50;;
76848;SDS011;65814;51.134;16.980;2023-03-01T01:34:34;111.20;;;46.60;;
76848;SDS011;65814;51.134;16.980;2023-03-01T01:37:01;100.20;;;45.40;;
76848;SDS011;65814;51.134;16.980;2023-03-01T01:39:28;104.50;;;45.20;;
76848;SDS011;65814;51.134;16.980;2023-03-01T01:41:55;93.40;;;43.30;;
76848;SDS011;65814;51.134;16.980;2023-03-01T01:44:25;96.80;;;42.30;;
76848;SDS011;65814;51.134;16.980;2023-03-01T01:49:27;92.40;;;40.80;;
76848;SDS011;65814;51.134;16.980;2023-03-01T01:54:45;93.30;;;40.20;;
76848;SDS011;65814;51.134;16.980;2023-03-01T01:57:43;100.00;;;44.50;;
76848;SDS011;65814;51.134;16.980;2023-03-01T02:00:16;88.80;;;43.60;;
76848;SDS011;65814;51.134;16.980;2023-03-01T02:02:45;99.90;;;45.00;;
76848;SDS011;65814;51.134;16.980;2023-03-01T02:07:56;93.60;;;42.30;;
76848;SDS011;65814;51.134;16.980;2023-03-01T02:10:24;95.40;;;42.30;;
76848;SDS011;65814;51.134;16.980;2023-03-01T02:12:51;104.80;;;46.00;;
76848;SDS011;65814;51.134;16.980;2023-03-01T02:15:18;96.90;;;43.50;;
76848;SDS011;65814;51.134;16.980;2023-03-01T02:17:44;104.70;;;45.60;;
76848;SDS011;65814;51.134;16.980;2023-03-01T02:22:53;98.80;;;45.20;;
76848;SDS011;65814;51.134;16.980;2023-03-01T02:25:32;93.30;;;43.80;;
76848;SDS011;65814;51.134;16.980;2023-03-01T02:30:42;103.30;;;43.40;;
76848;SDS011;65814;51.134;16.980;2023-03-01T02:33:29;98.40;;;41.40;;
76848;SDS011;65814;51.134;16.980;2023-03-01T02:36:00;100.10;;;39.90;;
76848;SDS011;65814;51.134;16.980;2023-03-01T02:38:28;88.40;;;42.00;;
76848;SDS011;65814;51.134;16.980;2023-03-01T02:40:55;97.90;;;42.70;;
76848;SDS011;65814;51.134;16.980;2023-03-01T02:43:23;97.50;;;42.10;;
76848;SDS011;65814;51.134;16.980;2023-03-01T02:45:52;95.80;;;39.20;;
76848;SDS011;65814;51.134;16.980;2023-03-01T02:48:19;101.40;;;46.30;;
76848;SDS011;65814;51.134;16.980;2023-03-01T02:56:55;100.70;;;40.60;;
76848;SDS011;65814;51.134;16.980;2023-03-01T02:59:23;91.90;;;42.50;;
76848;SDS011;65814;51.134;16.980;2023-03-01T03:01:53;94.70;;;41.90;;
76848;SDS011;65814;51.134;16.980;2023-03-01T03:04:20;90.60;;;41.10;;
76848;SDS011;65814;51.134;16.980;2023-03-01T03:06:48;97.00;;;41.50;;
76848;SDS011;65814;51.134;16.980;2023-03-01T03:09:16;88.50;;;38.90;;
76848;SDS011;65814;51.134;16.980;2023-03-01T03:11:46;97.60;;;43.40;;
76848;SDS011;65814;51.134;16.980;2023-03-01T03:14:13;97.70;;;42.40;;
76848;SDS011;65814;51.134;16.980;2023-03-01T03:16:46;89.60;;;42.80;;
76848;SDS011;65814;51.134;16.980;2023-03-01T03:19:14;91.30;;;40.70;;
76848;SDS011;65814;51.134;16.980;2023-03-01T03:21:42;95.40;;;43.40;;
76848;SDS011;65814;51.134;16.980;2023-03-01T03:24:09;91.10;;;40.60;;
76848;SDS011;65814;51.134;16.980;2023-03-01T03:26:38;91.30;;;42.00;;
76848;SDS011;65814;51.134;16.980;2023-03-01T03:29:05;91.80;;;43.20;;
76848;SDS011;65814;51.134;16.980;2023-03-01T03:31:34;92.60;;;39.30;;
76848;SDS011;65814;51.134;16.980;2023-03-01T03:34:01;93.20;;;41.90;;
76848;SDS011;65814;51.134;16.980;2023-03-01T03:36:27;93.00;;;41.60;;
76848;SDS011;65814;51.134;16.980;2023-03-01T03:38:54;90.70;;;42.20;;
76848;SDS011;65814;51.134;16.980;2023-03-01T03:41:22;88.60;;;41.90;;
76848;SDS011;65814;51.134;16.980;2023-03-01T03:43:48;99.80;;;43.80;;
76848;SDS011;65814;51.134;16.980;2023-03-01T03:46:15;91.10;;;43.80;;
76848;SDS011;65814;51.134;16.980;2023-03-01T03:48:43;104.90;;;47.50;;
76848;SDS011;65814;51.134;16.980;2023-03-01T03:51:12;102.20;;;44.60;;
76848;SDS011;65814;51.134;16.980;2023-03-01T03:53:40;104.80;;;43.30;;
76848;SDS011;65814;51.134;16.980;2023-03-01T03:56:07;96.90;;;44.00;;
76848;SDS011;65814;51.134;16.980;2023-03-01T03:58:35;91.90;;;42.70;;
76848;SDS011;65814;51.134;16.980;2023-03-01T04:01:02;95.40;;;43.00;;
76848;SDS011;65814;51.134;16.980;2023-03-01T04:03:31;90.20;;;44.90;;
76848;SDS011;65814;51.134;16.980;2023-03-01T04:05:59;93.20;;;41.10;;
76848;SDS011;65814;51.134;16.980;2023-03-01T04:08:26;105.70;;;44.10;;
76848;SDS011;65814;51.134;16.980;2023-03-01T04:10:57;101.30;;;45.50;;
76848;SDS011;65814;51.134;16.980;2023-03-01T04:13:48;96.20;;;41.60;;
76848;SDS011;65814;51.134;16.980;2023-03-01T04:16:15;94.60;;;42.60;;
76848;SDS011;65814;51.134;16.980;2023-03-01T04:18:42;82.60;;;39.00;;
76848;SDS011;65814;51.134;16.980;2023-03-01T04:21:12;88.70;;;39.20;;
76848;SDS011;65814;51.134;16.980;2023-03-01T04:23:39;94.40;;;42.90;;
76848;SDS011;65814;51.134;16.980;2023-03-01T04:26:07;100.90;;;42.70;;
76848;SDS011;65814;51.134;16.980;2023-03-01T04:28:37;91.90;;;48.20;;
76848;SDS011;65814;51.134;16.980;2023-03-01T04:31:08;97.40;;;42.40;;
76848;SDS011;65814;51.134;16.980;2023-03-01T04:33:40;99.90;;;43.60;;
76848;SDS011;65814;51.134;16.980;2023-03-01T04:36:22;106.60;;;46.10;;
76848;SDS011;65814;51.134;16.980;2023-03-01T04:38:53;100.10;;;43.30;;
76848;SDS011;65814;51.134;16.980;2023-03-01T04:41:20;102.90;;;44.60;;
76848;SDS011;65814;51.134;16.980;2023-03-01T04:43:48;115.40;;;49.80;;
76848;SDS011;65814;51.134;16.980;2023-03-01T04:46:16;105.60;;;44.30;;
76848;SDS011;65814;51.134;16.980;2023-03-01T04:48:45;101.70;;;46.60;;
76848;SDS011;65814;51.134;16.980;2023-03-01T04:51:13;99.30;;;45.30;;
76848;SDS011;65814;51.134;16.980;2023-03-01T04:53:40;94.70;;;45.30;;
76848;SDS011;65814;51.134;16.980;2023-03-01T04:56:07;80.50;;;39.60;;
76848;SDS011;65814;51.134;16.980;2023-03-01T04:58:34;92.10;;;36.70;;
76848;SDS011;65814;51.134;16.980;2023-03-01T05:01:01;83.40;;;36.30;;
76848;SDS011;65814;51.134;16.980;2023-03-01T05:03:27;86.90;;;39.20;;
76848;SDS011;65814;51.134;16.980;2023-03-01T05:05:54;77.90;;;35.20;;
76848;SDS011;65814;51.134;16.980;2023-03-01T05:08:25;87.90;;;38.60;;
76848;SDS011;65814;51.134;16.980;2023-03-01T05:10:54;85.40;;;37.80;;
76848;SDS011;65814;51.134;16.980;2023-03-01T05:13:21;78.20;;;34.00;;
76848;SDS011;65814;51.134;16.980;2023-03-01T05:15:49;75.30;;;38.60;;
76848;SDS011;65814;51.134;16.980;2023-03-01T05:18:20;79.40;;;36.20;;
76848;SDS011;65814;51.134;16.980;2023-03-01T05:20:47;77.20;;;35.80;;
76848;SDS011;65814;51.134;16.980;2023-03-01T05:23:13;78.50;;;35.20;;
76848;SDS011;65814;51.134;16.980;2023-03-01T05:25:40;79.30;;;35.10;;
76848;SDS011;65814;51.134;16.980;2023-03-01T05:28:13;77.80;;;35.00;;
76848;SDS011;65814;51.134;16.980;2023-03-01T05:30:40;78.60;;;39.50;;
76848;SDS011;65814;51.134;16.980;2023-03-01T05:33:07;84.80;;;39.90;;
76848;SDS011;65814;51.134;16.980;2023-03-01T05:35:43;83.50;;;41.30;;
76848;SDS011;65814;51.134;16.980;2023-03-01T05:38:11;81.60;;;37.90;;
76848;SDS011;65814;51.134;16.980;2023-03-01T05:40:42;82.70;;;38.00;;
76848;SDS011;65814;51.134;16.980;2023-03-01T05:43:10;85.00;;;39.50;;
76848;SDS011;65814;51.134;16.980;2023-03-01T05:45:37;84.20;;;37.00;;
76848;SDS011;65814;51.134;16.980;2023-03-01T05:48:06;92.00;;;40.00;;
76848;SDS011;65814;51.134;16.980;2023-03-01T05:50:39;93.60;;;39.40;;
76848;SDS011;65814;51.134;16.980;2023-03-01T05:53:14;83.40;;;37.00;;
76848;SDS011;65814;51.134;16.980;2023-03-01T05:55:48;76.90;;;36.40;;
76848;SDS011;65814;51.134;16.980;2023-03-01T05:58:17;85.80;;;39.60;;
76848;SDS011;65814;51.134;16.980;2023-03-01T06:00:45;87.70;;;40.70;;
76848;SDS011;65814;51.134;16.980;2023-03-01T06:03:14;96.50;;;38.80;;
76848;SDS011;65814;51.134;16.980;2023-03-01T06:05:42;90.60;;;39.20;;
76848;SDS011;65814;51.134;16.980;2023-03-01T06:08:09;97.40;;;39.30;;
76848;SDS011;65814;51.134;16.980;2023-03-01T06:10:37;85.20;;;38.50;;
76848;SDS011;65814;51.134;16.980;2023-03-01T06:13:04;93.00;;;42.20;;
76848;SDS011;65814;51.134;16.980;2023-03-01T06:15:31;94.70;;;46.30;;
76848;SDS011;65814;51.134;16.980;2023-03-01T06:17:57;102.20;;;46.00;;
76848;SDS011;65814;51.134;16.980;2023-03-01T06:20:26;93.80;;;42.60;;
76848;SDS011;65814;51.134;16.980;2023-03-01T06:22:54;96.90;;;45.40;;
76848;SDS011;65814;51.134;16.980;2023-03-01T06:25:22;95.00;;;44.00;;
76848;SDS011;65814;51.134;16.980;2023-03-01T06:27:50;103.70;;;44.70;;
76848;SDS011;65814;51.134;16.980;2023-03-01T06:30:18;99.50;;;46.10;;
76848;SDS011;65814;51.134;16.980;2023-03-01T06:32:46;106.80;;;46.90;;
76848;SDS011;65814;51.134;16.980;2023-03-01T06:35:13;99.60;;;46.30;;
76848;SDS011;65814;51.134;16.980;2023-03-01T06:37:43;96.80;;;46.80;;
76848;SDS011;65814;51.134;16.980;2023-03-01T06:40:10;112.10;;;49.80;;
76848;SDS011;65814;51.134;16.980;2023-03-01T06:42:41;96.20;;;43.10;;
76848;SDS011;65814;51.134;16.980;2023-03-01T06:45:09;98.30;;;43.80;;
76848;SDS011;65814;51.134;16.980;2023-03-01T06:47:36;99.10;;;44.40;;
76848;SDS011;65814;51.134;16.980;2023-03-01T06:50:03;103.10;;;45.20;;
76848;SDS011;65814;51.134;16.980;2023-03-01T06:52:30;113.20;;;52.40;;
76848;SDS011;65814;51.134;16.980;2023-03-01T06:54:57;120.40;;;56.50;;
76848;SDS011;65814;51.134;16.980;2023-03-01T06:57:24;111.20;;;56.20;;
76848;SDS011;65814;51.134;16.980;2023-03-01T06:59:51;116.50;;;55.60;;
76848;SDS011;65814;51.134;16.980;2023-03-01T07:02:17;109.20;;;51.40;;
76848;SDS011;65814;51.134;16.980;2023-03-01T07:04:44;116.60;;;52.50;;
76848;SDS011;65814;51.134;16.980;2023-03-01T07:07:10;113.70;;;52.50;;
76848;SDS011;65814;51.134;16.980;2023-03-01T07:09:37;112.20;;;48.10;;
76848;SDS011;65814;51.134;16.980;2023-03-01T07:12:06;107.10;;;49.10;;
76848;SDS011;65814;51.134;16.980;2023-03-01T07:14:34;100.00;;;49.20;;
76848;SDS011;65814;51.134;16.980;2023-03-01T07:17:00;107.70;;;51.00;;
76848;SDS011;65814;51.134;16.980;2023-03-01T07:19:27;109.10;;;48.40;;
76848;SDS011;65814;51.134;16.980;2023-03-01T07:21:53;106.70;;;49.10;;
76848;SDS011;65814;51.134;16.980;2023-03-01T07:24:21;105.60;;;49.40;;
76848;SDS011;65814;51.134;16.980;2023-03-01T07:26:51;109.80;;;53.80;;
76848;SDS011;65814;51.134;16.980;2023-03-01T07:29:17;118.50;;;54.20;;
76848;SDS011;65814;51.134;16.980;2023-03-01T07:31:46;102.10;;;48.30;;
76848;SDS011;65814;51.134;16.980;2023-03-01T07:34:13;101.80;;;44.30;;
76848;SDS011;65814;51.134;16.980;2023-03-01T07:36:39;99.30;;;46.20;;
76848;SDS011;65814;51.134;16.980;2023-03-01T07:39:09;98.60;;;44.80;;
76848;SDS011;65814;51.134;16.980;2023-03-01T07:41:36;94.20;;;44.70;;
76848;SDS011;65814;51.134;16.980;2023-03-01T07:44:03;86.70;;;42.20;;
76848;SDS011;65814;51.134;16.980;2023-03-01T07:46:30;88.70;;;39.30;;
76848;SDS011;65814;51.134;16.980;2023-03-01T07:48:57;87.30;;;39.00;;
76848;SDS011;65814;51.134;16.980;2023-03-01T07:53:51;68.10;;;32.50;;
76848;SDS011;65814;51.134;16.980;2023-03-01T07:56:17;69.80;;;35.10;;
76848;SDS011;65814;51.134;16.980;2023-03-01T07:58:45;70.60;;;35.40;;
76848;SDS011;65814;51.134;16.980;2023-03-01T08:01:13;72.20;;;34.40;;
76848;SDS011;65814;51.134;16.980;2023-03-01T08:03:41;70.20;;;31.80;;
76848;SDS011;65814;51.134;16.980;2023-03-01T08:06:10;72.90;;;34.00;;
76848;SDS011;65814;51.134;16.980;2023-03-01T08:08:37;56.80;;;30.10;;
76848;SDS011;65814;51.134;16.980;2023-03-01T08:11:05;62.70;;;28.30;;
76848;SDS011;65814;51.134;16.980;2023-03-01T08:13:32;68.60;;;29.30;;
76848;SDS011;65814;51.134;16.980;2023-03-01T08:16:03;66.50;;;29.60;;
76848;SDS011;65814;51.134;16.980;2023-03-01T08:18:34;56.40;;;27.60;;
76848;SDS011;65814;51.134;16.980;2023-03-01T08:21:05;62.30;;;29.80;;
76848;SDS011;65814;51.134;16.980;2023-03-01T08:23:37;59.20;;;31.60;;
76848;SDS011;65814;51.134;16.980;2023-03-01T08:26:11;58.40;;;27.30;;
76848;SDS011;65814;51.134;16.980;2023-03-01T08:28:43;52.10;;;26.70;;
76848;SDS011;65814;51.134;16.980;2023-03-01T08:31:13;57.40;;;28.50;;
76848;SDS011;65814;51.134;16.980;2023-03-01T08:33:43;57.90;;;28.90;;
76848;SDS011;65814;51.134;16.980;2023-03-01T08:36:09;60.40;;;28.40;;
76848;SDS011;65814;51.134;16.980;2023-03-01T08:38:36;49.50;;;26.60;;
76848;SDS011;65814;51.134;16.980;2023-03-01T08:41:03;57.70;;;27.50;;
76848;SDS011;65814;51.134;16.980;2023-03-01T08:45:56;50.80;;;26.00;;
76848;SDS011;65814;51.134;16.980;2023-03-01T08:48:23;49.10;;;23.40;;
76848;SDS011;65814;51.134;16.980;2023-03-01T08:50:50;49.00;;;24.90;;
76848;SDS011;65814;51.134;16.980;2023-03-01T08:53:16;46.30;;;24.00;;
76848;SDS011;65814;51.134;16.980;2023-03-01T08:55:43;50.30;;;26.20;;
76848;SDS011;65814;51.134;16.980;2023-03-01T09:00:36;49.60;;;24.50;;
76848;SDS011;65814;51.134;16.980;2023-03-01T09:03:03;54.50;;;27.40;;
76848;SDS011;65814;51.134;16.980;2023-03-01T09:05:31;67.80;;;32.10;;
76848;SDS011;65814;51.134;16.980;2023-03-01T09:07:59;69.70;;;34.70;;
76848;SDS011;65814;51.134;16.980;2023-03-01T09:10:26;67.00;;;33.00;;
76848;SDS011;65814;51.134;16.980;2023-03-01T09:12:52;58.60;;;31.40;;
76848;SDS011;65814;51.134;16.980;2023-03-01T09:15:19;70.80;;;32.40;;
76848;SDS011;65814;51.134;16.980;2023-03-01T09:17:45;64.40;;;32.80;;
76848;SDS011;65814;51.134;16.980;2023-03-01T09:20:12;66.80;;;32.50;;
76848;SDS011;65814;51.134;16.980;2023-03-01T09:22:39;61.10;;;31.10;;
76848;SDS011;65814;51.134;16.980;2023-03-01T09:25:06;59.80;;;31.20;;
76848;SDS011;65814;51.134;16.980;2023-03-01T09:27:36;64.80;;;31.70;;
76848;SDS011;65814;51.134;16.980;2023-03-01T09:30:02;62.30;;;31.20;;
76848;SDS011;65814;51.134;16.980;2023-03-01T09:32:30;60.40;;;30.20;;
76848;SDS011;65814;51.134;16.980;2023-03-01T09:34:57;67.70;;;34.10;;
76848;SDS011;65814;51.134;16.980;2023-03-01T09:37:29;70.80;;;31.90;;
76848;SDS011;65814;51.134;16.980;2023-03-01T09:39:57;69.30;;;33.20;;
76848;SDS011;65814;51.134;16.980;2023-03-01T09:42:26;64.40;;;32.30;;
76848;SDS011;65814;51.134;16.980;2023-03-01T09:44:55;66.90;;;32.70;;
76848;SDS011;65814;51.134;16.980;2023-03-01T09:47:27;69.00;;;31.40;;
76848;SDS011;65814;51.134;16.980;2023-03-01T09:50:12;59.90;;;29.20;;
76848;SDS011;65814;51.134;16.980;2023-03-01T09:52:56;63.90;;;30.30;;
76848;SDS011;65814;51.134;16.980;2023-03-01T09:57:55;62.60;;;28.70;;
76848;SDS011;65814;51.134;16.980;2023-03-01T10:03:25;57.70;;;28.90;;
76848;SDS011;65814;51.134;16.980;2023-03-01T10:05:59;52.10;;;28.40;;
76848;SDS011;65814;51.134;16.980;2023-03-01T10:08:33;52.80;;;27.80;;
76848;SDS011;65814;51.134;16.980;2023-03-01T10:11:08;54.60;;;25.80;;
76848;SDS011;65814;51.134;16.980;2023-03-01T10:14:15;48.20;;;25.80;;
76848;SDS011;65814;51.134;16.980;2023-03-01T10:16:51;45.10;;;24.40;;
76848;SDS011;65814;51.134;16.980;2023-03-01T10:19:24;49.00;;;23.10;;
76848;SDS011;65814;51.134;16.980;2023-03-01T10:21:56;48.80;;;23.50;;
76848;SDS011;65814;51.134;16.980;2023-03-01T10:24:34;44.20;;;23.60;;
76848;SDS011;65814;51.134;16.980;2023-03-01T10:27:04;47.30;;;25.30;;
76848;SDS011;65814;51.134;16.980;2023-03-01T10:32:21;51.30;;;24.40;;
76848;SDS011;65814;51.134;16.980;2023-03-01T10:34:50;43.00;;;20.70;;
76848;SDS011;65814;51.134;16.980;2023-03-01T10:37:18;40.50;;;21.90;;
76848;SDS011;65814;51.134;16.980;2023-03-01T10:39:57;46.50;;;24.40;;
76848;SDS011;65814;51.134;16.980;2023-03-01T10:42:54;41.10;;;20.50;;
76848;SDS011;65814;51.134;16.980;2023-03-01T10:48:15;39.00;;;18.90;;
76848;SDS011;65814;51.134;16.980;2023-03-01T10:50:50;36.70;;;18.40;;
76848;SDS011;65814;51.134;16.980;2023-03-01T10:53:27;38.80;;;18.20;;
76848;SDS011;65814;51.134;16.980;2023-03-01T10:56:03;33.60;;;16.00;;
76848;SDS011;65814;51.134;16.980;2023-03-01T10:58:32;35.40;;;18.50;;
76848;SDS011;65814;51.134;16.980;2023-03-01T11:01:09;36.10;;;18.10;;
76848;SDS011;65814;51.134;16.980;2023-03-01T11:06:31;34.60;;;17.20;;
76848;SDS011;65814;51.134;16.980;2023-03-01T11:09:15;33.90;;;16.80;;
76848;SDS011;65814;51.134;16.980;2023-03-01T11:11:44;33.20;;;18.10;;
76848;SDS011;65814;51.134;16.980;2023-03-01T11:17:05;28.10;;;17.20;;
76848;SDS011;65814;51.134;16.980;2023-03-01T11:19:32;28.20;;;16.30;;
76848;SDS011;65814;51.134;16.980;2023-03-01T11:22:01;34.60;;;16.90;;
76848;SDS011;65814;51.134;16.980;2023-03-01T11:24:53;31.40;;;17.70;;
76848;SDS011;65814;51.134;16.980;2023-03-01T11:27:36;29.30;;;16.00;;
76848;SDS011;65814;51.134;16.980;2023-03-01T11:35:35;29.70;;;16.00;;
76848;SDS011;65814;51.134;16.980;2023-03-01T11:38:14;25.60;;;15.30;;
76848;SDS011;65814;51.134;16.980;2023-03-01T11:43:59;30.50;;;16.30;;
76848;SDS011;65814;51.134;16.980;2023-03-01T11:57:43;23.00;;;14.40;;
76848;SDS011;65814;51.134;16.980;2023-03-01T12:00:30;25.50;;;13.50;;
76848;SDS011;65814;51.134;16.980;2023-03-01T12:06:46;24.70;;;13.80;;
76848;SDS011;65814;51.134;16.980;2023-03-01T12:09:09;25.80;;;13.30;;
76848;SDS011;65814;51.134;16.980;2023-03-01T12:19:51;21.40;;;12.10;;
76848;SDS011;65814;51.134;16.980;2023-03-01T12:22:32;20.00;;;11.30;;
76848;SDS011;65814;51.134;16.980;2023-03-01T12:25:16;28.80;;;13.10;;
76848;SDS011;65814;51.134;16.980;2023-03-01T12:35:48;19.70;;;10.20;;
76848;SDS011;65814;51.134;16.980;2023-03-01T12:38:41;19.80;;;11.20;;
76848;SDS011;65814;51.134;16.980;2023-03-01T12:46:32;19.90;;;10.60;;
76848;SDS011;65814;51.134;16.980;2023-03-01T12:51:54;27.10;;;12.50;;
76848;SDS011;65814;51.134;16.980;2023-03-01T12:54:33;17.40;;;9.10;;
76848;SDS011;65814;51.134;16.980;2023-03-01T12:59:47;19.60;;;10.00;;
76848;SDS011;65814;51.134;16.980;2023-03-01T13:02:30;18.20;;;8.90;;
76848;SDS011;65814;51.134;16.980;2023-03-01T13:05:10;15.00;;;8.20;;
76848;SDS011;65814;51.134;16.980;2023-03-01T13:08:20;17.40;;;8.40;;
76848;SDS011;65814;51.134;16.980;2023-03-01T13:11:03;14.40;;;7.60;;
76848;SDS011;65814;51.134;16.980;2023-03-01T13:13:31;15.00;;;8.10;;
76848;SDS011;65814;51.134;16.980;2023-03-01T13:16:16;13.20;;;8.00;;
76848;SDS011;65814;51.134;16.980;2023-03-01T13:21:58;14.70;;;9.50;;
76848;SDS011;65814;51.134;16.980;2023-03-01T13:29:44;14.70;;;8.40;;
76848;SDS011;65814;51.134;16.980;2023-03-01T13:32:21;16.80;;;8.60;;
76848;SDS011;65814;51.134;16.980;2023-03-01T13:37:42;14.20;;;8.50;;
76848;SDS011;65814;51.134;16.980;2023-03-01T13:42:43;17.70;;;8.90;;
76848;SDS011;65814;51.134;16.980;2023-03-01T13:45:23;19.30;;;10.20;;
76848;SDS011;65814;51.134;16.980;2023-03-01T13:50:49;17.00;;;9.60;;
76848;SDS011;65814;51.134;16.980;2023-03-01T13:53:20;18.60;;;9.10;;
76848;SDS011;65814;51.134;16.980;2023-03-01T13:55:50;18.70;;;9.50;;
76848;SDS011;65814;51.134;16.980;2023-03-01T13:58:24;18.70;;;10.40;;
76848;SDS011;65814;51.134;16.980;2023-03-01T14:01:05;20.00;;;9.80;;
76848;SDS011;65814;51.134;16.980;2023-03-01T14:03:40;20.20;;;9.90;;
76848;SDS011;65814;51.134;16.980;2023-03-01T14:06:09;18.40;;;9.00;;
76848;SDS011;65814;51.134;16.980;2023-03-01T14:08:43;21.40;;;10.90;;
76848;SDS011;65814;51.134;16.980;2023-03-01T14:19:42;21.80;;;9.80;;
76848;SDS011;65814;51.134;16.980;2023-03-01T14:24:58;18.00;;;8.90;;
76848;SDS011;65814;51.134;16.980;2023-03-01T14:27:32;19.20;;;10.40;;
76848;SDS011;65814;51.134;16.980;2023-03-01T14:30:03;17.60;;;9.40;;
76848;SDS011;65814;51.134;16.980;2023-03-01T14:32:35;16.20;;;9.30;;
76848;SDS011;65814;51.134;16.980;2023-03-01T14:35:02;14.50;;;9.80;;
76848;SDS011;65814;51.134;16.980;2023-03-01T14:37:32;16.50;;;9.50;;
76848;SDS011;65814;51.134;16.980;2023-03-01T14:40:01;20.90;;;10.90;;
76848;SDS011;65814;51.134;16.980;2023-03-01T14:42:34;18.60;;;10.50;;
76848;SDS011;65814;51.134;16.980;2023-03-01T14:45:02;18.40;;;8.70;;
76848;SDS011;65814;51.134;16.980;2023-03-01T14:47:33;16.20;;;9.60;;
76848;SDS011;65814;51.134;16.980;2023-03-01T14:50:08;18.50;;;9.90;;
76848;SDS011;65814;51.134;16.980;2023-03-01T14:52:53;19.00;;;11.00;;
76848;SDS011;65814;51.134;16.980;2023-03-01T14:55:29;19.70;;;10.40;;
76848;SDS011;65814;51.134;16.980;2023-03-01T14:57:58;26.00;;;11.70;;
76848;SDS011;65814;51.134;16.980;2023-03-01T15:00:26;49.20;;;18.60;;
76848;SDS011;65814;51.134;16.980;2023-03-01T15:02:55;34.20;;;15.40;;
76848;SDS011;65814;51.134;16.980;2023-03-01T15:07:57;21.30;;;10.90;;
76848;SDS011;65814;51.134;16.980;2023-03-01T15:10:30;24.60;;;14.70;;
76848;SDS011;65814;51.134;16.980;2023-03-01T15:15:48;19.30;;;9.30;;
76848;SDS011;65814;51.134;16.980;2023-03-01T15:20:46;28.20;;;14.10;;
76848;SDS011;65814;51.134;16.980;2023-03-01T15:23:18;26.60;;;12.50;;
76848;SDS011;65814;51.134;16.980;2023-03-01T15:28:26;22.10;;;10.60;;
76848;SDS011;65814;51.134;16.980;2023-03-01T15:30:58;23.70;;;10.90;;
76848;SDS011;65814;51.134;16.980;2023-03-01T15:33:33;26.60;;;11.30;;
76848;SDS011;65814;51.134;16.980;2023-03-01T15:36:02;23.00;;;11.20;;
76848;SDS011;65814;51.134;16.980;2023-03-01T15:41:19;21.90;;;10.90;;
76848;SDS011;65814;51.134;16.980;2023-03-01T15:43:49;21.20;;;10.60;;
76848;SDS011;65814;51.134;16.980;2023-03-01T15:46:23;21.70;;;12.30;;
76848;SDS011;65814;51.134;16.980;2023-03-01T15:48:54;19.10;;;10.20;;
76848;SDS011;65814;51.134;16.980;2023-03-01T15:53:59;18.50;;;9.50;;
76848;SDS011;65814;51.134;16.980;2023-03-01T15:56:27;25.00;;;11.10;;
76848;SDS011;65814;51.134;16.980;2023-03-01T15:58:59;22.10;;;10.30;;
76848;SDS011;65814;51.134;16.980;2023-03-01T16:01:26;21.30;;;9.70;;
76848;SDS011;65814;51.134;16.980;2023-03-01T16:03:54;21.00;;;10.50;;
76848;SDS011;65814;51.134;16.980;2023-03-01T16:06:21;18.90;;;9.40;;
76848;SDS011;65814;51.134;16.980;2023-03-01T16:08:48;21.50;;;12.00;;
76848;SDS011;65814;51.134;16.980;2023-03-01T16:11:16;22.50;;;11.50;;
76848;SDS011;65814;51.134;16.980;2023-03-01T16:13:44;24.30;;;11.30;;
76848;SDS011;65814;51.134;16.980;2023-03-01T16:16:12;20.70;;;11.70;;
76848;SDS011;65814;51.134;16.980;2023-03-01T16:18:45;24.70;;;11.70;;
76848;SDS011;65814;51.134;16.980;2023-03-01T16:21:19;24.90;;;12.00;;
76848;SDS011;65814;51.134;16.980;2023-03-01T16:23:47;27.50;;;13.60;;
76848;SDS011;65814;51.134;16.980;2023-03-01T16:26:14;27.80;;;12.70;;
76848;SDS011;65814;51.134;16.980;2023-03-01T16:28:42;26.40;;;13.20;;
76848;SDS011;65814;51.134;16.980;2023-03-01T16:33:37;31.30;;;13.10;;
76848;SDS011;65814;51.134;16.980;2023-03-01T16:36:11;26.10;;;13.40;;
76848;SDS011;65814;51.134;16.980;2023-03-01T16:38:38;26.60;;;13.00;;
76848;SDS011;65814;51.134;16.980;2023-03-01T16:41:11;25.40;;;13.80;;
76848;SDS011;65814;51.134;16.980;2023-03-01T16:43:39;27.40;;;13.60;;
76848;SDS011;65814;51.134;16.980;2023-03-01T16:46:14;26.00;;;13.30;;
76848;SDS011;65814;51.134;16.980;2023-03-01T16:48:43;27.10;;;12.90;;
76848;SDS011;65814;51.134;16.980;2023-03-01T16:51:09;28.00;;;14.20;;